sensor_id;sensor_type;location;lat;lon;timestamp;P1;durP1;ratioP1;P2;durP2;ratioP2
45274;SDS011;31019;43.780;25.948;2023-04-01T00:01:02;82.20;;;74.80;;
45274;SDS011;31019;43.780;25.948;2023-04-01T00:03:31;96.00;;;87.57;;
45274;SDS011;31019;43.780;25.948;2023-04-01T00:05:58;94.55;;;85.93;;
45274;SDS011;31019;43.780;25.948;2023-04-01T00:08:27;78.25;;;71.03;;
45274;SDS011;31019;43.780;25.948;2023-04-01T00:10:55;69.20;;;62.40;;
45274;SDS011;31019;43.780;25.948;2023-04-01T00:13:23;77.28;;;69.78;;
45274;SDS011;31019;43.780;25.948;2023-04-01T00:15:50;83.63;;;75.70;;
45274;SDS011;31019;43.780;25.948;2023-04-01T00:18:17;72.88;;;65.57;;
45274;SDS011;31019;43.780;25.948;2023-04-01T00:20:44;78.70;;;71.15;;
45274;SDS011;31019;43.780;25.948;2023-04-01T00:23:12;77.13;;;70.03;;
45274;SDS011;31019;43.780;25.948;2023-04-01T00:25:40;82.85;;;75.28;;
45274;SDS011;31019;43.780;25.948;2023-04-01T00:28:07;88.55;;;80.13;;
45274;SDS011;31019;43.780;25.948;2023-04-01T00:30:35;95.43;;;86.72;;
45274;SDS011;31019;43.780;25.948;2023-04-01T00:33:02;95.78;;;87.28;;
45274;SDS011;31019;43.780;25.948;2023-04-01T00:35:29;85.13;;;77.13;;
45274;SDS011;31019;43.780;25.948;2023-04-01T00:37:57;75.80;;;68.25;;
45274;SDS011;31019;43.780;25.948;2023-04-01T00:40:26;80.50;;;72.03;;
45274;SDS011;31019;43.780;25.948;2023-04-01T00:42:56;83.07;;;75.03;;
45274;SDS011;31019;43.780;25.948;2023-04-01T00:45:28;76.35;;;68.78;;
45274;SDS011;31019;43.780;25.948;2023-04-01T00:47:56;85.25;;;77.05;;
45274;SDS011;31019;43.780;25.948;2023-04-01T00:50:25;86.20;;;78.13;;
45274;SDS011;31019;43.780;25.948;2023-04-01T00:52:54;85.88;;;77.38;;
45274;SDS011;31019;43.780;25.948;2023-04-01T00:55:21;91.78;;;82.20;;
45274;SDS011;31019;43.780;25.948;2023-04-01T00:57:50;100.38;;;90.40;;
45274;SDS011;31019;43.780;25.948;2023-04-01T01:00:22;86.43;;;77.22;;
45274;SDS011;31019;43.780;25.948;2023-04-01T01:02:51;92.22;;;83.75;;
45274;SDS011;31019;43.780;25.948;2023-04-01T01:05:18;91.63;;;83.00;;
45274;SDS011;31019;43.780;25.948;2023-04-01T01:07:55;91.25;;;83.03;;
45274;SDS011;31019;43.780;25.948;2023-04-01T01:10:30;97.50;;;88.80;;
45274;SDS011;31019;43.780;25.948;2023-04-01T01:13:01;98.82;;;90.03;;
45274;SDS011;31019;43.780;25.948;2023-04-01T01:15:37;95.65;;;87.20;;
45274;SDS011;31019;43.780;25.948;2023-04-01T01:18:13;91.55;;;82.95;;
45274;SDS011;31019;43.780;25.948;2023-04-01T01:20:56;97.03;;;88.18;;
45274;SDS011;31019;43.780;25.948;2023-04-01T01:24:11;106.65;;;97.15;;
45274;SDS011;31019;43.780;25.948;2023-04-01T01:26:54;87.13;;;79.00;;
45274;SDS011;31019;43.780;25.948;2023-04-01T01:29:43;88.25;;;79.70;;
45274;SDS011;31019;43.780;25.948;2023-04-01T01:32:28;80.75;;;72.63;;
45274;SDS011;31019;43.780;25.948;2023-04-01T01:37:51;91.32;;;82.63;;
45274;SDS011;31019;43.780;25.948;2023-04-01T01:40:22;79.78;;;71.70;;
45274;SDS011;31019;43.780;25.948;2023-04-01T01:42:53;81.38;;;73.13;;
45274;SDS011;31019;43.780;25.948;2023-04-01T01:45:26;102.45;;;93.45;;
45274;SDS011;31019;43.780;25.948;2023-04-01T01:47:56;97.13;;;88.22;;
45274;SDS011;31019;43.780;25.948;2023-04-01T01:50:26;92.13;;;83.22;;
45274;SDS011;31019;43.780;25.948;2023-04-01T01:53:01;91.50;;;82.78;;
45274;SDS011;31019;43.780;25.948;2023-04-01T01:55:30;97.53;;;88.15;;
45274;SDS011;31019;43.780;25.948;2023-04-01T01:57:58;93.22;;;84.18;;
45274;SDS011;31019;43.780;25.948;2023-04-01T02:00:27;97.97;;;88.35;;
45274;SDS011;31019;43.780;25.948;2023-04-01T02:02:55;109.32;;;97.93;;
45274;SDS011;31019;43.780;25.948;2023-04-01T02:05:24;113.50;;;101.63;;
45274;SDS011;31019;43.780;25.948;2023-04-01T02:07:57;99.47;;;89.28;;
45274;SDS011;31019;43.780;25.948;2023-04-01T02:10:30;102.78;;;92.53;;
45274;SDS011;31019;43.780;25.948;2023-04-01T02:13:01;104.75;;;94.25;;
45274;SDS011;31019;43.780;25.948;2023-04-01T02:15:34;103.00;;;92.45;;
45274;SDS011;31019;43.780;25.948;2023-04-01T02:18:08;104.50;;;93.93;;
45274;SDS011;31019;43.780;25.948;2023-04-01T02:20:36;113.28;;;102.10;;
45274;SDS011;31019;43.780;25.948;2023-04-01T02:23:07;158.88;;;130.88;;
45274;SDS011;31019;43.780;25.948;2023-04-01T02:25:36;170.18;;;135.05;;
45274;SDS011;31019;43.780;25.948;2023-04-01T02:28:06;164.40;;;134.27;;
45274;SDS011;31019;43.780;25.948;2023-04-01T02:30:35;122.40;;;109.13;;
45274;SDS011;31019;43.780;25.948;2023-04-01T02:33:05;128.43;;;116.47;;
45274;SDS011;31019;43.780;25.948;2023-04-01T02:35:33;141.18;;;128.20;;
45274;SDS011;31019;43.780;25.948;2023-04-01T02:38:01;115.05;;;104.35;;
45274;SDS011;31019;43.780;25.948;2023-04-01T02:40:39;108.88;;;98.47;;
45274;SDS011;31019;43.780;25.948;2023-04-01T02:43:08;104.63;;;94.60;;
45274;SDS011;31019;43.780;25.948;2023-04-01T02:45:34;106.47;;;96.88;;
45274;SDS011;31019;43.780;25.948;2023-04-01T02:48:01;98.30;;;89.07;;
45274;SDS011;31019;43.780;25.948;2023-04-01T02:50:28;111.47;;;101.43;;
45274;SDS011;31019;43.780;25.948;2023-04-01T02:52:55;122.47;;;111.75;;
45274;SDS011;31019;43.780;25.948;2023-04-01T02:55:21;108.65;;;98.53;;
45274;SDS011;31019;43.780;25.948;2023-04-01T02:57:49;118.07;;;107.88;;
45274;SDS011;31019;43.780;25.948;2023-04-01T03:00:17;89.43;;;80.93;;
45274;SDS011;31019;43.780;25.948;2023-04-01T03:02:43;105.15;;;95.53;;
45274;SDS011;31019;43.780;25.948;2023-04-01T03:05:10;106.72;;;96.90;;
45274;SDS011;31019;43.780;25.948;2023-04-01T03:07:37;105.75;;;95.65;;
45274;SDS011;31019;43.780;25.948;2023-04-01T03:10:05;99.82;;;90.47;;
45274;SDS011;31019;43.780;25.948;2023-04-01T03:12:32;107.88;;;98.32;;
45274;SDS011;31019;43.780;25.948;2023-04-01T03:15:00;124.45;;;113.82;;
45274;SDS011;31019;43.780;25.948;2023-04-01T03:17:27;117.65;;;107.10;;
45274;SDS011;31019;43.780;25.948;2023-04-01T03:19:54;106.45;;;96.90;;
45274;SDS011;31019;43.780;25.948;2023-04-01T03:22:21;107.13;;;97.03;;
45274;SDS011;31019;43.780;25.948;2023-04-01T03:24:48;121.30;;;110.40;;
45274;SDS011;31019;43.780;25.948;2023-04-01T03:27:15;112.75;;;102.13;;
45274;SDS011;31019;43.780;25.948;2023-04-01T03:29:41;104.43;;;94.75;;
45274;SDS011;31019;43.780;25.948;2023-04-01T03:32:09;89.38;;;81.13;;
45274;SDS011;31019;43.780;25.948;2023-04-01T03:34:36;87.05;;;78.75;;
45274;SDS011;31019;43.780;25.948;2023-04-01T03:37:03;88.43;;;80.13;;
45274;SDS011;31019;43.780;25.948;2023-04-01T03:39:30;94.97;;;86.03;;
45274;SDS011;31019;43.780;25.948;2023-04-01T03:41:57;92.53;;;83.97;;
45274;SDS011;31019;43.780;25.948;2023-04-01T03:44:24;99.18;;;90.00;;
45274;SDS011;31019;43.780;25.948;2023-04-01T03:46:51;92.68;;;84.65;;
45274;SDS011;31019;43.780;25.948;2023-04-01T03:49:19;90.53;;;82.07;;
45274;SDS011;31019;43.780;25.948;2023-04-01T03:51:45;85.13;;;77.35;;
45274;SDS011;31019;43.780;25.948;2023-04-01T03:54:12;84.32;;;75.78;;
45274;SDS011;31019;43.780;25.948;2023-04-01T03:56:39;84.90;;;76.85;;
45274;SDS011;31019;43.780;25.948;2023-04-01T03:59:06;78.97;;;71.82;;
45274;SDS011;31019;43.780;25.948;2023-04-01T04:01:34;80.07;;;72.88;;
45274;SDS011;31019;43.780;25.948;2023-04-01T04:04:00;89.47;;;80.78;;
45274;SDS011;31019;43.780;25.948;2023-04-01T04:06:29;85.85;;;77.65;;
45274;SDS011;31019;43.780;25.948;2023-04-01T04:08:56;100.20;;;90.20;;
45274;SDS011;31019;43.780;25.948;2023-04-01T04:11:23;117.75;;;102.63;;
45274;SDS011;31019;43.780;25.948;2023-04-01T04:13:50;78.10;;;70.38;;
45274;SDS011;31019;43.780;25.948;2023-04-01T04:16:18;91.63;;;81.85;;
45274;SDS011;31019;43.780;25.948;2023-04-01T04:18:44;89.40;;;80.60;;
45274;SDS011;31019;43.780;25.948;2023-04-01T04:21:12;83.53;;;74.85;;
45274;SDS011;31019;43.780;25.948;2023-04-01T04:23:41;86.78;;;78.20;;
45274;SDS011;31019;43.780;25.948;2023-04-01T04:26:09;218.15;;;130.10;;
45274;SDS011;31019;43.780;25.948;2023-04-01T04:28:37;288.60;;;168.32;;
45274;SDS011;31019;43.780;25.948;2023-04-01T04:31:04;174.93;;;121.50;;
45274;SDS011;31019;43.780;25.948;2023-04-01T04:33:32;126.55;;;102.80;;
45274;SDS011;31019;43.780;25.948;2023-04-01T04:35:59;70.72;;;64.85;;
45274;SDS011;31019;43.780;25.948;2023-04-01T04:38:27;70.22;;;64.32;;
45274;SDS011;31019;43.780;25.948;2023-04-01T04:40:55;103.22;;;83.85;;
45274;SDS011;31019;43.780;25.948;2023-04-01T04:43:23;78.53;;;70.45;;
45274;SDS011;31019;43.780;25.948;2023-04-01T04:45:50;75.15;;;68.13;;
45274;SDS011;31019;43.780;25.948;2023-04-01T04:48:17;74.38;;;67.60;;
45274;SDS011;31019;43.780;25.948;2023-04-01T04:50:45;75.30;;;68.43;;
45274;SDS011;31019;43.780;25.948;2023-04-01T04:53:14;75.38;;;68.70;;
45274;SDS011;31019;43.780;25.948;2023-04-01T04:55:44;79.30;;;72.65;;
45274;SDS011;31019;43.780;25.948;2023-04-01T04:58:13;83.30;;;76.22;;
45274;SDS011;31019;43.780;25.948;2023-04-01T05:00:40;82.00;;;74.90;;
45274;SDS011;31019;43.780;25.948;2023-04-01T05:03:07;79.60;;;72.47;;
45274;SDS011;31019;43.780;25.948;2023-04-01T05:05:35;75.93;;;69.65;;
45274;SDS011;31019;43.780;25.948;2023-04-01T05:08:01;77.47;;;71.05;;
45274;SDS011;31019;43.780;25.948;2023-04-01T05:10:28;77.78;;;71.35;;
45274;SDS011;31019;43.780;25.948;2023-04-01T05:12:56;75.38;;;69.22;;
45274;SDS011;31019;43.780;25.948;2023-04-01T05:15:25;73.40;;;67.47;;
45274;SDS011;31019;43.780;25.948;2023-04-01T05:17:51;62.75;;;57.45;;
45274;SDS011;31019;43.780;25.948;2023-04-01T05:20:18;59.92;;;54.83;;
45274;SDS011;31019;43.780;25.948;2023-04-01T05:22:45;53.38;;;48.78;;
45274;SDS011;31019;43.780;25.948;2023-04-01T05:25:12;54.78;;;50.25;;
45274;SDS011;31019;43.780;25.948;2023-04-01T05:27:38;54.90;;;50.00;;
45274;SDS011;31019;43.780;25.948;2023-04-01T05:30:06;56.03;;;51.13;;
45274;SDS011;31019;43.780;25.948;2023-04-01T05:32:34;56.47;;;51.67;;
45274;SDS011;31019;43.780;25.948;2023-04-01T05:35:01;58.42;;;53.25;;
45274;SDS011;31019;43.780;25.948;2023-04-01T05:37:28;54.47;;;50.00;;
45274;SDS011;31019;43.780;25.948;2023-04-01T05:39:55;58.42;;;53.22;;
45274;SDS011;31019;43.780;25.948;2023-04-01T05:42:23;92.28;;;77.55;;
45274;SDS011;31019;43.780;25.948;2023-04-01T05:44:50;69.70;;;62.47;;
45274;SDS011;31019;43.780;25.948;2023-04-01T05:47:17;61.10;;;55.58;;
45274;SDS011;31019;43.780;25.948;2023-04-01T05:49:45;62.13;;;56.25;;
45274;SDS011;31019;43.780;25.948;2023-04-01T05:52:12;60.10;;;54.47;;
45274;SDS011;31019;43.780;25.948;2023-04-01T05:54:39;59.80;;;53.72;;
45274;SDS011;31019;43.780;25.948;2023-04-01T05:57:06;66.10;;;59.40;;
45274;SDS011;31019;43.780;25.948;2023-04-01T05:59:33;68.68;;;61.78;;
45274;SDS011;31019;43.780;25.948;2023-04-01T06:02:00;71.80;;;64.68;;
45274;SDS011;31019;43.780;25.948;2023-04-01T06:04:28;57.38;;;51.97;;
45274;SDS011;31019;43.780;25.948;2023-04-01T06:07:04;53.53;;;48.53;;
45274;SDS011;31019;43.780;25.948;2023-04-01T06:09:36;56.15;;;50.80;;
45274;SDS011;31019;43.780;25.948;2023-04-01T06:15:02;70.57;;;64.03;;
45274;SDS011;31019;43.780;25.948;2023-04-01T06:17:46;67.15;;;61.58;;
45274;SDS011;31019;43.780;25.948;2023-04-01T06:20:26;60.80;;;55.50;;
45274;SDS011;31019;43.780;25.948;2023-04-01T06:23:07;60.95;;;55.70;;
45274;SDS011;31019;43.780;25.948;2023-04-01T06:25:47;54.05;;;49.25;;
45274;SDS011;31019;43.780;25.948;2023-04-01T06:28:47;55.75;;;50.47;;
45274;SDS011;31019;43.780;25.948;2023-04-01T06:31:32;48.58;;;44.05;;
45274;SDS011;31019;43.780;25.948;2023-04-01T06:34:21;45.67;;;41.38;;
45274;SDS011;31019;43.780;25.948;2023-04-01T06:37:02;46.17;;;41.53;;
45274;SDS011;31019;43.780;25.948;2023-04-01T06:39:50;53.85;;;49.05;;
45274;SDS011;31019;43.780;25.948;2023-04-01T06:42:37;53.28;;;48.30;;
45274;SDS011;31019;43.780;25.948;2023-04-01T06:45:27;48.75;;;44.55;;
45274;SDS011;31019;43.780;25.948;2023-04-01T06:48:02;48.80;;;44.63;;
45274;SDS011;31019;43.780;25.948;2023-04-01T06:50:42;46.47;;;42.27;;
45274;SDS011;31019;43.780;25.948;2023-04-01T06:53:17;46.28;;;42.10;;
45274;SDS011;31019;43.780;25.948;2023-04-01T06:55:51;46.13;;;41.60;;
45274;SDS011;31019;43.780;25.948;2023-04-01T06:58:24;49.08;;;44.85;;
45274;SDS011;31019;43.780;25.948;2023-04-01T07:00:57;47.30;;;42.73;;
45274;SDS011;31019;43.780;25.948;2023-04-01T07:03:29;39.60;;;35.92;;
45274;SDS011;31019;43.780;25.948;2023-04-01T07:06:00;36.83;;;33.42;;
45274;SDS011;31019;43.780;25.948;2023-04-01T07:08:30;35.75;;;32.38;;
45274;SDS011;31019;43.780;25.948;2023-04-01T07:11:02;36.80;;;33.42;;
45274;SDS011;31019;43.780;25.948;2023-04-01T07:13:31;43.13;;;39.20;;
45274;SDS011;31019;43.780;25.948;2023-04-01T07:16:05;44.13;;;40.13;;
45274;SDS011;31019;43.780;25.948;2023-04-01T07:18:38;38.25;;;34.65;;
45274;SDS011;31019;43.780;25.948;2023-04-01T07:21:09;45.97;;;41.53;;
45274;SDS011;31019;43.780;25.948;2023-04-01T07:23:40;51.95;;;46.03;;
45274;SDS011;31019;43.780;25.948;2023-04-01T07:26:14;48.38;;;43.47;;
45274;SDS011;31019;43.780;25.948;2023-04-01T07:28:45;53.75;;;48.55;;
45274;SDS011;31019;43.780;25.948;2023-04-01T07:31:15;50.65;;;46.15;;
45274;SDS011;31019;43.780;25.948;2023-04-01T07:33:55;42.80;;;38.97;;
45274;SDS011;31019;43.780;25.948;2023-04-01T07:36:29;38.17;;;34.60;;
45274;SDS011;31019;43.780;25.948;2023-04-01T07:39:05;33.75;;;30.95;;
45274;SDS011;31019;43.780;25.948;2023-04-01T07:41:45;46.50;;;42.20;;
45274;SDS011;31019;43.780;25.948;2023-04-01T07:44:20;99.50;;;68.88;;
45274;SDS011;31019;43.780;25.948;2023-04-01T07:47:01;43.88;;;39.15;;
45274;SDS011;31019;43.780;25.948;2023-04-01T07:49:43;37.88;;;33.88;;
45274;SDS011;31019;43.780;25.948;2023-04-01T07:52:24;33.85;;;30.65;;
45274;SDS011;31019;43.780;25.948;2023-04-01T07:55:00;40.95;;;36.47;;
45274;SDS011;31019;43.780;25.948;2023-04-01T07:57:35;56.55;;;50.67;;
45274;SDS011;31019;43.780;25.948;2023-04-01T08:00:10;78.35;;;69.25;;
45274;SDS011;31019;43.780;25.948;2023-04-01T08:02:51;67.25;;;60.00;;
45274;SDS011;31019;43.780;25.948;2023-04-01T08:05:39;57.53;;;51.53;;
45274;SDS011;31019;43.780;25.948;2023-04-01T08:08:15;39.30;;;35.08;;
45274;SDS011;31019;43.780;25.948;2023-04-01T08:10:46;26.45;;;24.05;;
45274;SDS011;31019;43.780;25.948;2023-04-01T08:13:23;26.27;;;24.27;;
45274;SDS011;31019;43.780;25.948;2023-04-01T08:16:03;28.38;;;25.98;;
45274;SDS011;31019;43.780;25.948;2023-04-01T08:18:38;27.77;;;25.58;;
45274;SDS011;31019;43.780;25.948;2023-04-01T08:21:12;25.13;;;23.02;;
45274;SDS011;31019;43.780;25.948;2023-04-01T08:23:43;25.05;;;23.10;;
45274;SDS011;31019;43.780;25.948;2023-04-01T08:26:13;23.90;;;21.98;;
45274;SDS011;31019;43.780;25.948;2023-04-01T08:28:49;23.05;;;21.05;;
45274;SDS011;31019;43.780;25.948;2023-04-01T08:31:22;27.75;;;24.92;;
45274;SDS011;31019;43.780;25.948;2023-04-01T08:33:56;24.65;;;22.20;;
45274;SDS011;31019;43.780;25.948;2023-04-01T08:36:24;27.58;;;25.13;;
45274;SDS011;31019;43.780;25.948;2023-04-01T08:38:55;22.50;;;20.50;;
45274;SDS011;31019;43.780;25.948;2023-04-01T08:41:29;24.85;;;22.50;;
45274;SDS011;31019;43.780;25.948;2023-04-01T08:52:53;25.83;;;23.60;;
45274;SDS011;31019;43.780;25.948;2023-04-01T08:55:36;26.58;;;24.23;;
45274;SDS011;31019;43.780;25.948;2023-04-01T08:58:23;27.30;;;24.70;;
45274;SDS011;31019;43.780;25.948;2023-04-01T09:01:31;25.95;;;23.40;;
45274;SDS011;31019;43.780;25.948;2023-04-01T09:04:23;27.13;;;24.33;;
45274;SDS011;31019;43.780;25.948;2023-04-01T09:07:03;26.45;;;23.98;;
45274;SDS011;31019;43.780;25.948;2023-04-01T09:09:50;24.80;;;22.48;;
45274;SDS011;31019;43.780;25.948;2023-04-01T09:12:51;24.67;;;22.55;;
45274;SDS011;31019;43.780;25.948;2023-04-01T09:15:42;25.00;;;22.80;;
45274;SDS011;31019;43.780;25.948;2023-04-01T09:24:35;25.23;;;23.02;;
45274;SDS011;31019;43.780;25.948;2023-04-01T09:27:12;25.50;;;23.00;;
45274;SDS011;31019;43.780;25.948;2023-04-01T09:32:58;24.90;;;22.90;;
45274;SDS011;31019;43.780;25.948;2023-04-01T09:35:47;24.95;;;23.05;;
45274;SDS011;31019;43.780;25.948;2023-04-01T09:38:20;23.42;;;21.23;;
45274;SDS011;31019;43.780;25.948;2023-04-01T09:40:54;25.33;;;23.33;;
45274;SDS011;31019;43.780;25.948;2023-04-01T09:43:25;25.00;;;23.23;;
45274;SDS011;31019;43.780;25.948;2023-04-01T09:45:58;30.13;;;27.77;;
45274;SDS011;31019;43.780;25.948;2023-04-01T09:48:55;32.33;;;29.50;;
45274;SDS011;31019;43.780;25.948;2023-04-01T09:51:40;26.35;;;24.25;;
45274;SDS011;31019;43.780;25.948;2023-04-01T09:54:23;24.83;;;22.88;;
45274;SDS011;31019;43.780;25.948;2023-04-01T10:06:45;23.88;;;21.98;;
45274;SDS011;31019;43.780;25.948;2023-04-01T10:21:25;32.47;;;29.58;;
45274;SDS011;31019;43.780;25.948;2023-04-01T10:24:23;33.58;;;30.42;;
45274;SDS011;31019;43.780;25.948;2023-04-01T10:27:21;34.40;;;31.48;;
45274;SDS011;31019;43.780;25.948;2023-04-01T10:39:08;29.90;;;27.60;;
45274;SDS011;31019;43.780;25.948;2023-04-01T10:54:43;25.77;;;23.80;;
45274;SDS011;31019;43.780;25.948;2023-04-01T11:00:11;26.08;;;23.98;;
45274;SDS011;31019;43.780;25.948;2023-04-01T11:15:39;26.38;;;24.15;;
45274;SDS011;31019;43.780;25.948;2023-04-01T11:24:30;28.25;;;25.80;;
45274;SDS011;31019;43.780;25.948;2023-04-01T11:27:16;32.42;;;29.85;;
45274;SDS011;31019;43.780;25.948;2023-04-01T11:30:04;28.60;;;26.00;;
45274;SDS011;31019;43.780;25.948;2023-04-01T11:32:56;25.35;;;23.42;;
45274;SDS011;31019;43.780;25.948;2023-04-01T11:38:26;28.52;;;26.33;;
45274;SDS011;31019;43.780;25.948;2023-04-01T11:41:10;26.85;;;24.25;;
45274;SDS011;31019;43.780;25.948;2023-04-01T11:44:01;27.17;;;24.58;;
45274;SDS011;31019;43.780;25.948;2023-04-01T11:46:42;25.50;;;23.40;;
45274;SDS011;31019;43.780;25.948;2023-04-01T11:49:22;23.70;;;21.70;;
45274;SDS011;31019;43.780;25.948;2023-04-01T11:52:00;23.58;;;21.58;;
45274;SDS011;31019;43.780;25.948;2023-04-01T11:54:49;25.80;;;23.42;;
45274;SDS011;31019;43.780;25.948;2023-04-01T11:57:36;26.17;;;23.77;;
45274;SDS011;31019;43.780;25.948;2023-04-01T12:03:10;23.35;;;21.35;;
45274;SDS011;31019;43.780;25.948;2023-04-01T12:05:57;26.13;;;23.83;;
45274;SDS011;31019;43.780;25.948;2023-04-01T12:08:31;24.98;;;22.90;;
45274;SDS011;31019;43.780;25.948;2023-04-01T12:11:09;26.63;;;24.10;;
45274;SDS011;31019;43.780;25.948;2023-04-01T12:13:45;26.80;;;24.60;;
45274;SDS011;31019;43.780;25.948;2023-04-01T12:16:24;32.47;;;29.83;;
45274;SDS011;31019;43.780;25.948;2023-04-01T12:19:01;28.33;;;25.85;;
45274;SDS011;31019;43.780;25.948;2023-04-01T12:21:37;27.42;;;25.13;;
45274;SDS011;31019;43.780;25.948;2023-04-01T12:24:22;26.88;;;24.45;;
45274;SDS011;31019;43.780;25.948;2023-04-01T12:33:04;22.90;;;20.83;;
45274;SDS011;31019;43.780;25.948;2023-04-01T12:36:02;25.02;;;22.88;;
45274;SDS011;31019;43.780;25.948;2023-04-01T12:38:40;25.10;;;22.80;;
45274;SDS011;31019;43.780;25.948;2023-04-01T12:41:17;23.48;;;21.38;;
45274;SDS011;31019;43.780;25.948;2023-04-01T12:50:02;25.77;;;23.45;;
45274;SDS011;31019;43.780;25.948;2023-04-01T12:53:04;22.83;;;20.80;;
45274;SDS011;31019;43.780;25.948;2023-04-01T12:55:43;27.88;;;25.38;;
45274;SDS011;31019;43.780;25.948;2023-04-01T12:58:34;32.88;;;30.27;;
45274;SDS011;31019;43.780;25.948;2023-04-01T13:01:34;30.77;;;27.83;;
45274;SDS011;31019;43.780;25.948;2023-04-01T13:04:29;23.30;;;21.27;;
45274;SDS011;31019;43.780;25.948;2023-04-01T13:10:24;24.63;;;22.45;;
45274;SDS011;31019;43.780;25.948;2023-04-01T13:13:20;24.00;;;21.90;;
45274;SDS011;31019;43.780;25.948;2023-04-01T13:16:01;24.67;;;22.17;;
45274;SDS011;31019;43.780;25.948;2023-04-01T13:18:38;23.52;;;21.60;;
45274;SDS011;31019;43.780;25.948;2023-04-01T13:21:23;25.02;;;22.75;;
45274;SDS011;31019;43.780;25.948;2023-04-01T13:24:00;25.15;;;22.77;;
45274;SDS011;31019;43.780;25.948;2023-04-01T13:26:37;24.33;;;22.23;;
45274;SDS011;31019;43.780;25.948;2023-04-01T13:29:13;25.60;;;23.23;;
45274;SDS011;31019;43.780;25.948;2023-04-01T13:31:48;48.88;;;32.70;;
45274;SDS011;31019;43.780;25.948;2023-04-01T13:34:29;496.85;;;192.25;;
45274;SDS011;31019;43.780;25.948;2023-04-01T13:37:12;700.25;;;260.15;;
45274;SDS011;31019;43.780;25.948;2023-04-01T13:39:57;187.88;;;82.18;;
45274;SDS011;31019;43.780;25.948;2023-04-01T13:42:42;108.30;;;70.05;;
45274;SDS011;31019;43.780;25.948;2023-04-01T13:45:15;89.18;;;60.70;;
45274;SDS011;31019;43.780;25.948;2023-04-01T13:51:13;386.30;;;145.45;;
45274;SDS011;31019;43.780;25.948;2023-04-01T13:53:48;246.07;;;111.80;;
45274;SDS011;31019;43.780;25.948;2023-04-01T13:56:33;380.40;;;143.40;;
45274;SDS011;31019;43.780;25.948;2023-04-01T13:59:10;165.50;;;85.87;;
45274;SDS011;31019;43.780;25.948;2023-04-01T14:01:59;418.70;;;184.20;;
45274;SDS011;31019;43.780;25.948;2023-04-01T14:04:47;179.32;;;102.65;;
45274;SDS011;31019;43.780;25.948;2023-04-01T14:07:29;417.98;;;186.75;;
45274;SDS011;31019;43.780;25.948;2023-04-01T14:10:08;66.43;;;59.30;;
45274;SDS011;31019;43.780;25.948;2023-04-01T14:12:47;88.40;;;70.70;;
45274;SDS011;31019;43.780;25.948;2023-04-01T14:18:22;74.25;;;63.33;;
45274;SDS011;31019;43.780;25.948;2023-04-01T14:21:04;74.45;;;64.38;;
45274;SDS011;31019;43.780;25.948;2023-04-01T14:23:54;79.15;;;61.33;;
45274;SDS011;31019;43.780;25.948;2023-04-01T14:29:36;75.05;;;61.47;;
45274;SDS011;31019;43.780;25.948;2023-04-01T14:32:13;79.97;;;67.00;;
45274;SDS011;31019;43.780;25.948;2023-04-01T14:34:54;79.70;;;65.80;;
45274;SDS011;31019;43.780;25.948;2023-04-01T14:37:55;82.68;;;67.70;;
45274;SDS011;31019;43.780;25.948;2023-04-01T14:40:33;71.10;;;63.25;;
45274;SDS011;31019;43.780;25.948;2023-04-01T14:43:20;82.63;;;68.38;;
45274;SDS011;31019;43.780;25.948;2023-04-01T14:46:01;89.30;;;67.95;;
45274;SDS011;31019;43.780;25.948;2023-04-01T14:48:50;76.22;;;68.35;;
45274;SDS011;31019;43.780;25.948;2023-04-01T14:51:21;90.32;;;80.80;;
45274;SDS011;31019;43.780;25.948;2023-04-01T14:53:58;75.45;;;67.55;;
45274;SDS011;31019;43.780;25.948;2023-04-01T14:56:37;91.70;;;82.25;;
45274;SDS011;31019;43.780;25.948;2023-04-01T14:59:09;94.53;;;69.78;;
45274;SDS011;31019;43.780;25.948;2023-04-01T15:04:17;87.68;;;78.43;;
45274;SDS011;31019;43.780;25.948;2023-04-01T15:07:03;87.43;;;78.53;;
45274;SDS011;31019;43.780;25.948;2023-04-01T15:09:42;86.82;;;78.25;;
45274;SDS011;31019;43.780;25.948;2023-04-01T15:12:18;82.35;;;73.50;;
45274;SDS011;31019;43.780;25.948;2023-04-01T15:14:58;88.15;;;79.65;;
45274;SDS011;31019;43.780;25.948;2023-04-01T15:17:44;90.30;;;81.90;;
45274;SDS011;31019;43.780;25.948;2023-04-01T15:20:35;87.25;;;73.22;;
45274;SDS011;31019;43.780;25.948;2023-04-01T15:26:11;73.97;;;66.55;;
45274;SDS011;31019;43.780;25.948;2023-04-01T15:28:45;86.82;;;64.47;;
45274;SDS011;31019;43.780;25.948;2023-04-01T15:31:22;98.22;;;73.55;;
45274;SDS011;31019;43.780;25.948;2023-04-01T15:34:07;81.47;;;73.18;;
45274;SDS011;31019;43.780;25.948;2023-04-01T15:36:50;77.45;;;67.45;;
45274;SDS011;31019;43.780;25.948;2023-04-01T15:39:24;67.35;;;61.15;;
45274;SDS011;31019;43.780;25.948;2023-04-01T15:42:11;74.05;;;66.65;;
45274;SDS011;31019;43.780;25.948;2023-04-01T15:44:50;87.13;;;77.97;;
45274;SDS011;31019;43.780;25.948;2023-04-01T15:47:27;84.80;;;75.60;;
45274;SDS011;31019;43.780;25.948;2023-04-01T15:53:22;102.15;;;91.50;;
45274;SDS011;31019;43.780;25.948;2023-04-01T15:55:58;121.53;;;108.35;;
45274;SDS011;31019;43.780;25.948;2023-04-01T15:58:44;113.82;;;102.60;;
45274;SDS011;31019;43.780;25.948;2023-04-01T16:01:24;118.30;;;106.55;;
45274;SDS011;31019;43.780;25.948;2023-04-01T16:04:03;114.63;;;103.32;;
45274;SDS011;31019;43.780;25.948;2023-04-01T16:06:46;111.85;;;101.10;;
45274;SDS011;31019;43.780;25.948;2023-04-01T16:09:28;64.35;;;58.92;;
45274;SDS011;31019;43.780;25.948;2023-04-01T16:12:15;86.00;;;76.90;;
45274;SDS011;31019;43.780;25.948;2023-04-01T16:14:51;132.13;;;120.28;;
45274;SDS011;31019;43.780;25.948;2023-04-01T16:17:37;174.88;;;159.70;;
45274;SDS011;31019;43.780;25.948;2023-04-01T16:20:17;183.80;;;167.65;;
45274;SDS011;31019;43.780;25.948;2023-04-01T16:22:49;183.70;;;166.18;;
45274;SDS011;31019;43.780;25.948;2023-04-01T16:25:29;174.02;;;157.60;;
45274;SDS011;31019;43.780;25.948;2023-04-01T16:28:04;193.48;;;175.50;;
45274;SDS011;31019;43.780;25.948;2023-04-01T16:30:44;169.52;;;152.95;;
45274;SDS011;31019;43.780;25.948;2023-04-01T16:33:17;209.90;;;187.90;;
45274;SDS011;31019;43.780;25.948;2023-04-01T16:35:52;198.43;;;179.15;;
45274;SDS011;31019;43.780;25.948;2023-04-01T16:38:25;256.35;;;229.75;;
45274;SDS011;31019;43.780;25.948;2023-04-01T16:41:04;216.93;;;196.82;;
45274;SDS011;31019;43.780;25.948;2023-04-01T16:43:38;254.95;;;230.32;;
45274;SDS011;31019;43.780;25.948;2023-04-01T16:46:18;224.43;;;204.55;;
45274;SDS011;31019;43.780;25.948;2023-04-01T16:48:58;210.77;;;193.02;;
45274;SDS011;31019;43.780;25.948;2023-04-01T16:51:32;208.05;;;186.80;;
45274;SDS011;31019;43.780;25.948;2023-04-01T16:54:11;222.55;;;204.07;;
45274;SDS011;31019;43.780;25.948;2023-04-01T16:56:45;231.85;;;213.13;;
45274;SDS011;31019;43.780;25.948;2023-04-01T16:59:18;212.90;;;194.98;;